首页
METAR-TAF:

METAR-TAF

机场 :

達拉謨, 英格兰

纬度: 54-31N, 经度: 001-25W, 海拔: 37米

当前天气观测

该预报发布于4小时和51分钟前的20:50 UTC
风速5节,风向西南
温度 4°C
湿度 93%
气压 1002 hPa
能见度10公里或以上
1500米以下无云,无积雨云

METAR: EGNV 162050Z 23005KT CAVOK 04/03 Q1002

时间: 02:41 (01:41 UTC)

预报

该预报发布于8小时和47分钟前的16:54 UTC
预报有效从16日的 18点(UTC)到 16日的 21点(UTC)
风速9节,风向西转西南
能见度10公里或以上
少量云层高于2000英尺

TAF: EGNV 161654Z 1618/1621 25009KT 9999 FEW020

超过4000个机场的气象观测和天气预报(METAR&TAF报告)。

可查询的气象台以黄色和红色小点在地图上表示。

将鼠标移到小点上方,可查看气象台名称。

然后点击查看天气观测和预报。

如需切换地图:点击带黑十字的绿色按钮放大地图;点击带横线的绿色按钮缩小地图;或者点击绿色箭头查看邻近地区的地图。


METAR-TAF: